Time;durP1;ratioP1;P1;durP2;ratioP2;P2;SDS_P1;SDS_P2;PMS_P1;PMS_P2;Temp;Humidity;BMP_temperature;BMP_pressure;BME280_temperature;BME280_humidity;BME280_pressure;Samples;Min_cycle;Max_cycle;Signal;HPM_P1;HPM_P2
2021/05/23 00:02:03;;;;;;;9.63;3.72;;;9.00;99.90;;;;;;4825988;29;20054;-88
2021/05/23 00:04:35;;;;;;;12.73;3.55;;;9.30;99.90;;;;;;4854204;29;20072;-88
2021/05/23 00:07:08;;;;;;;10.25;3.50;;;9.20;99.90;;;;;;4822610;29;20061;-88
2021/05/23 00:09:47;;;;;;;9.23;3.90;;;9.60;99.90;;;;;;4853070;29;20050;-88
2021/05/23 00:12:17;;;;;;;5.53;3.22;;;9.40;99.90;;;;;;4826091;29;20084;-88
2021/05/23 00:14:45;;;;;;;10.02;3.95;;;8.90;99.90;;;;;;4836871;29;20060;-87
2021/05/23 00:17:17;;;;;;;10.00;4.03;;;8.80;99.90;;;;;;4836026;29;20503;-88
2021/05/23 00:19:51;;;;;;;14.23;3.92;;;8.80;99.90;;;;;;4839846;29;20050;-88
2021/05/23 00:22:48;;;;;;;13.15;4.40;;;8.80;99.90;;;;;;4848061;29;20062;-87
2021/05/23 00:25:32;;;;;;;8.88;3.75;;;8.70;99.90;;;;;;4824659;29;20054;-89
2021/05/23 00:28:01;;;;;;;5.82;3.25;;;8.70;99.90;;;;;;4803312;29;20050;-88
2021/05/23 00:30:34;;;;;;;6.35;3.95;;;8.90;99.90;;;;;;4829839;29;20057;-88
2021/05/23 00:33:05;;;;;;;4.82;3.38;;;8.60;99.90;;;;;;4828968;29;20133;-88
2021/05/23 00:35:34;;;;;;;5.22;3.35;;;8.60;99.90;;;;;;4832412;29;20058;-89
2021/05/23 00:38:16;;;;;;;10.45;3.58;;;8.60;99.90;;;;;;4819865;29;20058;-89
2021/05/23 00:40:45;;;;;;;8.85;5.05;;;8.50;99.90;;;;;;4829588;29;20045;-88
2021/05/23 00:43:18;;;;;;;8.88;3.53;;;8.50;99.90;;;;;;4808417;29;20054;-89
2021/05/23 00:45:50;;;;;;;10.32;3.72;;;8.90;99.90;;;;;;4831863;29;20061;-88
2021/05/23 00:48:21;;;;;;;13.48;5.28;;;8.60;99.90;;;;;;4827697;29;20058;-89
2021/05/23 00:50:52;;;;;;;6.43;2.95;;;8.50;99.90;;;;;;4832952;29;20054;-87
2021/05/23 00:53:21;;;;;;;12.40;3.97;;;8.30;99.90;;;;;;4814817;29;20054;-87
2021/05/23 00:55:57;;;;;;;9.07;3.88;;;8.50;99.90;;;;;;4846405;29;20061;-88
2021/05/23 00:58:39;;;;;;;9.65;2.88;;;8.40;99.90;;;;;;4817613;29;20054;-88
2021/05/23 01:01:29;;;;;;;9.43;4.50;;;8.40;99.90;;;;;;4850313;29;20053;-88
2021/05/23 01:03:59;;;;;;;5.25;3.25;;;8.50;99.90;;;;;;4833053;29;20057;-89
2021/05/23 01:06:33;;;;;;;8.60;3.10;;;9.20;99.90;;;;;;4832987;29;20062;-88
2021/05/23 01:09:02;;;;;;;5.70;3.72;;;8.30;99.90;;;;;;4829230;29;20057;-88
2021/05/23 01:11:31;;;;;;;4.97;3.28;;;8.20;99.90;;;;;;4847178;29;20085;-87
2021/05/23 01:13:59;;;;;;;11.35;4.43;;;8.50;99.90;;;;;;4811148;29;20066;-88
2021/05/23 01:16:33;;;;;;;8.52;3.55;;;8.10;99.90;;;;;;4840224;29;20058;-88
2021/05/23 01:19:48;;;;;;;8.82;3.45;;;8.00;99.90;;;;;;4817082;29;20154;-88
2021/05/23 01:22:36;;;;;;;4.63;2.90;;;8.00;99.90;;;;;;4845953;29;20152;-88
2021/05/23 01:25:18;;;;;;;7.15;3.65;;;8.50;99.90;;;;;;4831854;29;20057;-88
2021/05/23 01:27:51;;;;;;;9.48;3.25;;;7.90;99.90;;;;;;4816997;29;20764;-88
2021/05/23 01:30:42;;;;;;;14.57;5.50;;;7.90;99.90;;;;;;4816932;29;20077;-88
2021/05/23 01:33:14;;;;;;;10.27;4.00;;;7.90;99.90;;;;;;4844624;29;20062;-89
2021/05/23 01:35:47;;;;;;;9.02;3.47;;;7.90;99.90;;;;;;4834678;29;20061;-87
2021/05/23 01:38:20;;;;;;;11.48;3.60;;;7.20;99.90;;;;;;4831781;29;20046;-88
2021/05/23 01:40:53;;;;;;;7.90;3.10;;;8.60;99.90;;;;;;4815160;29;20506;-89
2021/05/23 01:43:23;;;;;;;14.20;5.97;;;7.80;99.90;;;;;;4851719;29;20053;-87
2021/05/23 01:45:57;;;;;;;6.82;3.00;;;7.70;99.90;;;;;;4832733;29;20054;-86
2021/05/23 01:48:28;;;;;;;6.95;3.53;;;7.70;99.90;;;;;;4850795;29;20049;-88
2021/05/23 01:51:00;;;;;;;8.18;4.35;;;8.00;99.90;;;;;;4818703;29;20046;-88
2021/05/23 01:53:43;;;;;;;6.35;3.20;;;7.60;99.90;;;;;;4823536;29;20054;-88
2021/05/23 01:56:13;;;;;;;10.80;3.47;;;8.10;99.90;;;;;;4820764;29;20060;-88
2021/05/23 01:58:42;;;;;;;10.23;3.35;;;8.50;99.90;;;;;;4819580;29;20056;-87
2021/05/23 02:01:25;;;;;;;6.85;3.30;;;7.60;99.90;;;;;;4847986;29;20050;-87
2021/05/23 02:03:59;;;;;;;7.15;3.55;;;7.50;99.90;;;;;;4838148;29;20057;-88
2021/05/23 02:06:28;;;;;;;15.80;5.13;;;8.60;99.90;;;;;;4862387;29;20043;-87
2021/05/23 02:08:57;;;;;;;7.03;3.10;;;7.40;99.90;;;;;;4831672;29;20050;-88
2021/05/23 02:11:25;;;;;;;7.18;3.38;;;7.40;99.90;;;;;;4817870;29;20057;-88
2021/05/23 02:13:56;;;;;;;7.60;3.20;;;7.60;99.90;;;;;;4809663;29;20050;-88
2021/05/23 02:16:39;;;;;;;7.28;3.55;;;7.30;99.90;;;;;;4847817;29;20064;-86
2021/05/23 02:19:09;;;;;;;8.18;3.70;;;7.30;99.90;;;;;;4831181;29;20730;-88
2021/05/23 02:21:51;;;;;;;12.20;3.53;;;8.50;99.90;;;;;;4845267;29;20042;-88
2021/05/23 02:24:22;;;;;;;10.43;3.47;;;7.40;99.90;;;;;;4848100;29;20058;-87
2021/05/23 02:26:59;;;;;;;10.40;3.40;;;7.20;99.90;;;;;;4849488;29;20046;-88
2021/05/23 02:29:31;;;;;;;5.03;3.30;;;8.30;99.90;;;;;;4850666;29;20054;-88
2021/05/23 02:32:00;;;;;;;7.28;3.13;;;7.20;99.90;;;;;;4853364;29;20061;-88
2021/05/23 02:34:31;;;;;;;13.18;4.00;;;7.20;99.90;;;;;;4850958;29;20081;-88
2021/05/23 02:37:01;;;;;;;4.03;3.13;;;7.10;99.90;;;;;;4818516;29;20058;-88
2021/05/23 02:39:32;;;;;;;6.75;2.83;;;6.90;99.90;;;;;;4837798;29;20391;-88
2021/05/23 02:42:01;;;;;;;6.18;3.60;;;8.10;99.90;;;;;;4823061;29;20054;-87
2021/05/23 02:44:33;;;;;;;10.27;4.25;;;7.00;99.90;;;;;;4828658;29;20056;-88
2021/05/23 02:47:04;;;;;;;4.80;3.17;;;6.50;99.90;;;;;;4814994;29;20059;-88
2021/05/23 02:49:37;;;;;;;8.10;3.38;;;7.00;99.90;;;;;;4847789;29;20046;-88
2021/05/23 02:52:18;;;;;;;11.57;3.97;;;6.90;99.90;;;;;;4850484;29;20077;-88
2021/05/23 02:54:46;;;;;;;10.57;3.60;;;7.90;99.90;;;;;;4834068;29;20053;-88
2021/05/23 02:57:18;;;;;;;9.68;5.20;;;7.30;99.90;;;;;;4849761;29;20054;-89
2021/05/23 02:59:50;;;;;;;7.82;3.03;;;8.50;99.90;;;;;;4835854;29;20060;-88
2021/05/23 03:02:18;;;;;;;5.80;2.78;;;6.70;99.90;;;;;;4831888;29;20054;-88
2021/05/23 03:04:47;;;;;;;12.77;2.70;;;6.80;99.90;;;;;;4816985;29;20060;-87
2021/05/23 03:07:16;;;;;;;8.43;3.47;;;6.80;99.90;;;;;;4816950;29;20049;-88
2021/05/23 03:09:45;;;;;;;6.95;3.55;;;6.80;99.90;;;;;;4832699;29;20053;-87
2021/05/23 03:12:13;;;;;;;9.60;3.45;;;7.60;99.90;;;;;;4817897;29;20057;-87
2021/05/23 03:14:42;;;;;;;9.57;3.85;;;7.00;99.90;;;;;;4833224;29;20077;-88
2021/05/23 03:17:13;;;;;;;10.05;5.15;;;6.70;99.90;;;;;;4819748;29;20057;-87
2021/05/23 03:19:41;;;;;;;9.85;3.65;;;6.70;99.90;;;;;;4820840;29;20062;-87
2021/05/23 03:22:09;;;;;;;7.97;3.25;;;6.80;99.90;;;;;;4826653;29;20091;-88
2021/05/23 03:24:37;;;;;;;5.82;3.35;;;8.10;99.90;;;;;;4830139;29;20061;-88
2021/05/23 03:27:07;;;;;;;14.20;3.28;;;6.90;99.90;;;;;;4815699;29;20528;-87
2021/05/23 03:29:36;;;;;;;7.50;3.42;;;6.60;99.90;;;;;;4820053;29;20503;-88
2021/05/23 03:32:07;;;;;;;9.80;3.63;;;7.10;99.90;;;;;;4847319;29;20053;-88
2021/05/23 03:34:35;;;;;;;11.43;3.42;;;6.90;99.90;;;;;;4833835;29;20073;-88
2021/05/23 03:37:06;;;;;;;28.90;5.00;;;7.20;99.90;;;;;;4844640;29;20070;-88
2021/05/23 03:39:35;;;;;;;10.18;3.10;;;7.30;99.90;;;;;;4831370;29;20498;-88
2021/05/23 03:42:06;;;;;;;10.88;3.08;;;7.50;99.90;;;;;;4852497;29;20066;-87
2021/05/23 03:44:36;;;;;;;12.23;3.92;;;6.50;99.90;;;;;;4839523;29;20241;-88
2021/05/23 03:47:08;;;;;;;9.68;3.10;;;7.50;99.90;;;;;;4836455;29;20058;-88
2021/05/23 03:49:38;;;;;;;11.73;3.45;;;7.70;99.90;;;;;;4820906;29;20502;-88
2021/05/23 03:52:09;;;;;;;10.07;3.83;;;6.50;99.90;;;;;;4808418;29;20058;-88
2021/05/23 03:54:38;;;;;;;7.20;3.40;;;7.10;99.90;;;;;;4831543;29;20054;-88
2021/05/23 03:57:14;;;;;;;7.13;3.15;;;6.80;99.90;;;;;;4821862;29;20541;-88
2021/05/23 03:59:45;;;;;;;9.35;4.93;;;6.30;99.90;;;;;;4819080;29;20041;-87
2021/05/23 04:02:23;;;;;;;5.63;3.50;;;6.40;99.90;;;;;;4840352;29;20526;-87
2021/05/23 04:04:56;;;;;;;7.35;4.63;;;6.40;99.90;;;;;;4855173;29;20057;-88
2021/05/23 04:07:27;;;;;;;4.72;2.90;;;6.30;99.90;;;;;;4855583;29;20054;-88
2021/05/23 04:10:00;;;;;;;9.30;3.33;;;7.60;99.90;;;;;;4826902;29;20062;-88
2021/05/23 04:12:33;;;;;;;6.03;3.05;;;6.30;99.90;;;;;;4838922;29;20050;-89
2021/05/23 04:15:03;;;;;;;8.13;3.20;;;6.90;99.90;;;;;;4854184;29;20066;-88
2021/05/23 04:17:31;;;;;;;11.35;3.38;;;6.30;99.90;;;;;;4841835;29;20511;-87
2021/05/23 04:20:00;;;;;;;15.13;3.25;;;6.30;99.90;;;;;;4842200;29;20045;-88
2021/05/23 04:22:28;;;;;;;10.10;2.63;;;7.30;99.90;;;;;;4845785;29;20045;-88
2021/05/23 04:25:00;;;;;;;5.45;3.58;;;6.40;99.90;;;;;;4845076;29;20058;-87
2021/05/23 04:27:29;;;;;;;13.75;3.13;;;6.40;99.90;;;;;;4840640;29;20041;-87
2021/05/23 04:29:58;;;;;;;8.13;2.50;;;7.70;99.90;;;;;;4844347;29;20064;-87
2021/05/23 04:32:27;;;;;;;5.32;3.15;;;7.00;99.90;;;;;;4836010;29;20050;-87
2021/05/23 04:34:55;;;;;;;3.75;2.63;;;6.30;99.90;;;;;;4854282;29;20056;-88
2021/05/23 04:37:23;;;;;;;10.88;2.95;;;7.20;99.90;;;;;;4858768;29;20060;-87
2021/05/23 04:39:52;;;;;;;8.85;3.78;;;7.40;99.90;;;;;;4845447;29;20058;-87
2021/05/23 04:42:19;;;;;;;7.70;2.75;;;6.40;99.90;;;;;;4838963;29;20060;-87
2021/05/23 04:45:08;;;;;;;9.13;3.28;;;6.40;99.90;;;;;;4859834;29;20144;-87
2021/05/23 04:47:38;;;;;;;5.80;2.85;;;6.40;99.90;;;;;;4857903;29;20044;-88
2021/05/23 04:50:09;;;;;;;7.43;3.60;;;6.50;99.90;;;;;;4843430;29;20053;-87
2021/05/23 04:52:50;;;;;;;11.80;4.78;;;6.50;99.90;;;;;;4832492;29;20042;-87
2021/05/23 04:55:25;;;;;;;6.57;3.22;;;6.50;99.90;;;;;;4849487;29;20053;-87
2021/05/23 04:57:54;;;;;;;8.60;3.60;;;6.60;99.90;;;;;;4842574;29;20060;-87
2021/05/23 05:00:23;;;;;;;5.15;3.33;;;5.30;99.90;;;;;;4841138;29;20050;-87
2021/05/23 05:02:51;;;;;;;9.00;3.28;;;7.50;99.90;;;;;;4826500;29;20051;-87
2021/05/23 05:05:24;;;;;;;6.93;3.60;;;7.60;99.90;;;;;;4828684;29;20062;-87
2021/05/23 05:07:56;;;;;;;7.10;3.55;;;6.70;99.90;;;;;;4811891;29;20068;-87
2021/05/23 05:10:27;;;;;;;7.00;3.33;;;6.70;99.90;;;;;;4826307;29;20061;-88
2021/05/23 05:13:01;;;;;;;6.78;3.63;;;6.80;99.90;;;;;;4857689;29;20057;-89
2021/05/23 05:15:29;;;;;;;4.85;2.80;;;6.90;99.90;;;;;;4840645;29;20390;-88
2021/05/23 05:18:01;;;;;;;11.35;4.00;;;7.70;99.90;;;;;;4822322;29;20050;-87
2021/05/23 05:20:35;;;;;;;8.25;3.63;;;6.20;99.90;;;;;;4837183;29;20787;-88
2021/05/23 05:23:20;;;;;;;6.05;3.15;;;7.10;99.90;;;;;;4849591;29;20050;-87
2021/05/23 05:26:03;;;;;;;9.65;3.38;;;8.70;99.90;;;;;;4819507;29;20053;-88
2021/05/23 05:28:32;;;;;;;11.45;3.78;;;7.30;99.90;;;;;;4836652;29;20046;-87
2021/05/23 05:31:02;;;;;;;4.68;2.95;;;7.50;99.90;;;;;;4809072;29;20057;-89
2021/05/23 05:33:39;;;;;;;5.85;2.83;;;7.80;99.90;;;;;;4839433;29;20073;-88
2021/05/23 05:36:18;;;;;;;7.10;3.50;;;8.80;99.90;;;;;;4860550;24;20054;-87
2021/05/23 05:38:50;;;;;;;13.48;3.67;;;7.90;99.90;;;;;;4819664;29;20084;-87
2021/05/23 05:41:22;;;;;;;8.95;2.90;;;8.00;99.90;;;;;;4837202;29;20065;-88
2021/05/23 05:43:53;;;;;;;13.30;3.95;;;8.70;99.90;;;;;;4851144;29;20061;-89
2021/05/23 05:46:37;;;;;;;9.85;3.05;;;8.20;99.90;;;;;;4835685;29;20058;-89
2021/05/23 05:49:21;;;;;;;7.70;4.00;;;8.20;99.90;;;;;;4833232;29;20429;-88
2021/05/23 05:51:50;;;;;;;7.70;3.60;;;8.30;99.90;;;;;;4837671;29;20042;-87
2021/05/23 05:54:32;;;;;;;7.28;3.33;;;8.30;99.90;;;;;;4823211;29;20054;-87
2021/05/23 05:57:04;;;;;;;6.95;3.10;;;8.40;99.90;;;;;;4853237;29;20058;-87
2021/05/23 05:59:47;;;;;;;7.85;2.80;;;8.30;99.90;;;;;;4831610;29;20066;-89
2021/05/23 06:02:18;;;;;;;11.93;3.00;;;8.40;99.90;;;;;;4810617;29;20057;-89
2021/05/23 06:04:50;;;;;;;10.25;3.22;;;8.30;99.90;;;;;;4829132;29;20053;-88
2021/05/23 06:07:19;;;;;;;10.45;4.03;;;8.30;99.90;;;;;;4831180;29;20061;-89
2021/05/23 06:09:49;;;;;;;11.27;3.00;;;8.40;99.90;;;;;;4833740;29;20054;-88
2021/05/23 06:12:19;;;;;;;5.68;3.25;;;8.50;99.90;;;;;;4844076;29;20042;-88
2021/05/23 06:14:47;;;;;;;10.13;3.67;;;8.70;99.90;;;;;;4844729;29;20050;-88
2021/05/23 06:17:44;;;;;;;5.75;2.47;;;8.70;99.90;;;;;;4843870;29;20149;-88
2021/05/23 06:20:13;;;;;;;5.22;2.47;;;8.60;99.90;;;;;;4807604;29;20042;-89
2021/05/23 06:22:41;;;;;;;6.95;3.65;;;8.70;99.90;;;;;;4844165;29;20058;-90
2021/05/23 06:25:12;;;;;;;17.52;3.47;;;8.70;99.90;;;;;;4830870;29;20055;-89
2021/05/23 06:27:41;;;;;;;11.57;2.97;;;8.80;99.90;;;;;;4853068;29;20073;-90
2021/05/23 06:30:11;;;;;;;31.63;9.02;;;9.60;99.90;;;;;;4831178;29;20081;-88
2021/05/23 06:32:40;;;;;;;4.93;2.75;;;8.90;99.90;;;;;;4827567;29;20054;-88
2021/05/23 06:35:10;;;;;;;8.68;3.72;;;9.00;99.90;;;;;;4845644;29;20062;-89
2021/05/23 06:37:40;;;;;;;11.70;3.20;;;9.10;99.90;;;;;;4812562;29;20370;-88
2021/05/23 06:40:08;;;;;;;9.52;2.85;;;9.20;99.90;;;;;;4825974;29;20057;-87
2021/05/23 06:42:37;;;;;;;4.72;2.80;;;9.20;99.90;;;;;;4828450;29;20060;-87
2021/05/23 06:45:06;;;;;;;8.80;2.72;;;9.50;99.90;;;;;;4810481;29;20041;-88
2021/05/23 06:47:38;;;;;;;11.25;3.42;;;9.40;99.90;;;;;;4823471;29;20062;-88
2021/05/23 06:50:09;;;;;;;9.57;3.08;;;9.50;99.90;;;;;;4795021;29;20061;-88
2021/05/23 06:52:51;;;;;;;6.63;4.10;;;9.50;99.90;;;;;;4823917;29;20136;-88
2021/05/23 06:55:19;;;;;;;7.85;2.65;;;9.60;99.90;;;;;;4806607;29;20057;-88
2021/05/23 06:57:47;;;;;;;11.95;2.63;;;9.70;99.90;;;;;;4836942;29;20484;-88
2021/05/23 07:00:19;;;;;;;7.85;2.00;;;9.80;99.90;;;;;;4825714;29;20497;-87
2021/05/23 07:02:57;;;;;;;13.27;4.97;;;9.90;99.90;;;;;;4811836;29;20498;-88
2021/05/23 07:05:28;;;;;;;6.82;2.50;;;9.90;99.90;;;;;;4833750;29;20057;-88
2021/05/23 07:07:57;;;;;;;8.02;2.15;;;10.00;99.90;;;;;;4836317;29;20052;-89
2021/05/23 07:10:26;;;;;;;6.38;2.42;;;10.00;99.90;;;;;;4830128;29;20088;-89
2021/05/23 07:13:01;;;;;;;6.93;2.60;;;10.00;99.90;;;;;;4843439;29;20153;-89
2021/05/23 07:15:29;;;;;;;6.00;2.38;;;10.20;99.90;;;;;;4835744;29;20503;-88
2021/05/23 07:18:00;;;;;;;5.63;2.28;;;10.70;99.90;;;;;;4839441;29;20054;-89
2021/05/23 07:20:31;;;;;;;7.35;2.85;;;10.40;99.90;;;;;;4835144;29;20054;-89
2021/05/23 07:23:00;;;;;;;7.40;2.28;;;10.50;99.90;;;;;;4836560;29;20553;-89
2021/05/23 07:25:33;;;;;;;11.57;4.43;;;10.60;99.90;;;;;;4814693;29;20066;-89
2021/05/23 07:28:03;;;;;;;18.52;4.70;;;10.60;99.90;;;;;;4801204;29;20061;-89
2021/05/23 07:30:35;;;;;;;8.93;2.65;;;10.80;99.90;;;;;;4837484;29;20046;-89
2021/05/23 07:33:05;;;;;;;6.80;3.22;;;10.90;99.90;;;;;;4832294;29;20046;-89
2021/05/23 07:35:34;;;;;;;10.52;3.58;;;11.00;99.90;;;;;;4836555;29;20053;-89
2021/05/23 07:38:06;;;;;;;8.60;1.95;;;11.10;99.90;;;;;;4834182;29;20046;-89
2021/05/23 07:40:34;;;;;;;5.10;2.17;;;11.10;99.90;;;;;;4820471;29;20054;-89
2021/05/23 07:43:04;;;;;;;17.40;2.63;;;10.50;99.90;;;;;;4801261;29;20061;-90
2021/05/23 07:45:33;;;;;;;7.80;2.20;;;11.30;99.90;;;;;;4808039;29;20137;-89
2021/05/23 07:48:01;;;;;;;14.18;2.67;;;11.40;99.90;;;;;;4809075;29;20061;-89
2021/05/23 07:50:34;;;;;;;10.20;2.10;;;11.40;99.90;;;;;;4799027;29;20054;-89
2021/05/23 07:53:04;;;;;;;4.72;1.98;;;11.50;99.90;;;;;;4843127;29;20061;-89
2021/05/23 07:55:35;;;;;;;8.27;3.15;;;11.50;99.90;;;;;;4841723;29;20061;-90
2021/05/23 07:58:03;;;;;;;5.53;1.98;;;11.70;99.90;;;;;;4839122;29;20060;-89
2021/05/23 08:00:31;;;;;;;6.88;2.10;;;11.60;99.90;;;;;;4824157;29;20062;-89
2021/05/23 08:02:59;;;;;;;9.13;2.55;;;11.70;99.90;;;;;;4807219;29;20058;-88
2021/05/23 08:05:27;;;;;;;4.43;1.75;;;11.70;99.90;;;;;;4819203;29;20049;-89
2021/05/23 08:07:56;;;;;;;11.23;2.55;;;11.70;99.90;;;;;;4835808;29;20443;-88
2021/05/23 08:10:24;;;;;;;7.20;2.90;;;11.80;99.90;;;;;;4805071;29;20053;-88
2021/05/23 08:12:54;;;;;;;6.05;2.08;;;11.80;99.90;;;;;;4813006;29;20046;-91
2021/05/23 08:15:22;;;;;;;12.18;2.42;;;11.80;99.90;;;;;;4796389;29;20058;-91
2021/05/23 08:17:53;;;;;;;8.48;2.00;;;11.90;99.90;;;;;;4823454;29;20388;-88
2021/05/23 08:20:21;;;;;;;10.05;2.38;;;11.90;99.90;;;;;;4835889;29;20070;-89
2021/05/23 08:22:53;;;;;;;10.25;2.30;;;12.00;99.90;;;;;;4819146;29;20057;-88
2021/05/23 08:25:21;;;;;;;13.60;2.80;;;12.10;99.90;;;;;;4807797;29;20053;-90
2021/05/23 08:27:51;;;;;;;3.27;1.93;;;12.20;99.90;;;;;;4815885;29;20050;-89
2021/05/23 08:30:20;;;;;;;8.32;2.05;;;12.40;99.90;;;;;;4823140;29;20325;-90
2021/05/23 08:32:49;;;;;;;10.65;2.17;;;12.30;99.90;;;;;;4837837;29;20053;-88
2021/05/23 08:35:17;;;;;;;6.95;1.95;;;12.00;99.90;;;;;;4821528;29;20059;-90
2021/05/23 08:37:46;;;;;;;13.88;2.78;;;12.40;99.90;;;;;;4822045;29;20058;-90
2021/05/23 08:40:19;;;;;;;9.90;2.08;;;12.60;99.90;;;;;;4808592;29;20068;-91
2021/05/23 08:42:48;;;;;;;10.27;2.25;;;12.90;99.90;;;;;;4823282;29;20050;-89
2021/05/23 08:45:16;;;;;;;5.78;2.33;;;12.50;99.90;;;;;;4822881;29;20066;-88
2021/05/23 08:47:47;;;;;;;2.88;1.83;;;12.50;99.90;;;;;;4836916;29;20046;-90
2021/05/23 08:50:22;;;;;;;5.85;2.03;;;12.60;99.90;;;;;;4809016;29;20057;-89
2021/05/23 08:52:54;;;;;;;3.67;1.80;;;12.50;99.90;;;;;;4809231;29;20042;-90
2021/05/23 08:55:22;;;;;;;8.38;1.70;;;12.60;99.90;;;;;;4816150;29;20058;-89
2021/05/23 08:57:52;;;;;;;6.03;2.58;;;12.60;99.90;;;;;;4803295;29;20510;-88
2021/05/23 09:00:21;;;;;;;7.75;1.60;;;12.40;99.90;;;;;;4823898;29;20514;-91
2021/05/23 09:03:10;;;;;;;7.85;1.98;;;12.60;99.90;;;;;;4812497;29;20061;-89
2021/05/23 09:05:48;;;;;;;4.70;2.00;;;12.60;99.90;;;;;;4841916;29;20074;-90
2021/05/23 09:08:22;;;;;;;4.80;2.55;;;12.70;99.90;;;;;;4828946;29;20069;-91
2021/05/23 09:10:59;;;;;;;6.30;2.20;;;12.80;99.90;;;;;;4825348;29;20055;-91
2021/05/23 09:13:36;;;;;;;10.73;2.40;;;13.80;99.90;;;;;;4820600;29;20050;-91
2021/05/23 09:16:10;;;;;;;2.33;1.73;;;13.00;99.90;;;;;;4809942;29;20084;-91
2021/05/23 09:18:44;;;;;;;13.80;3.05;;;13.10;99.90;;;;;;4834899;29;20410;-92
2021/05/23 09:21:16;;;;;;;3.25;1.60;;;13.20;99.90;;;;;;4833441;29;20088;-91
2021/05/23 09:23:49;;;;;;;8.45;2.30;;;13.00;99.90;;;;;;4818619;29;20050;-91
2021/05/23 09:26:25;;;;;;;14.68;3.42;;;13.30;99.90;;;;;;4804732;29;20059;-91
2021/05/23 09:28:54;;;;;;;9.27;1.70;;;13.50;99.90;;;;;;4817083;29;20051;-90
2021/05/23 09:31:24;;;;;;;4.13;2.38;;;13.30;99.90;;;;;;4820517;29;20073;-91
2021/05/23 09:33:54;;;;;;;5.38;1.77;;;13.30;99.90;;;;;;4820653;29;20061;-90
2021/05/23 09:36:25;;;;;;;3.63;1.75;;;13.30;99.90;;;;;;4827290;29;20068;-91
2021/05/23 09:39:03;;;;;;;10.82;1.95;;;13.40;99.90;;;;;;4844367;29;20042;-91
2021/05/23 09:42:03;;;;;;;11.85;1.80;;;13.50;99.90;;;;;;4798517;29;20058;-90
2021/05/23 09:44:37;;;;;;;6.70;1.60;;;13.60;99.90;;;;;;4821029;29;20058;-91
2021/05/23 09:47:18;;;;;;;5.18;2.13;;;13.70;99.90;;;;;;4824551;29;20049;-90
2021/05/23 09:49:46;;;;;;;;;;;13.90;99.90;;;;;;4824579;29;20269;-91
2021/05/23 09:52:37;;;;;;;3.05;1.67;;;14.00;99.90;;;;;;4808491;29;19932;-91
2021/05/23 09:55:06;;;;;;;3.60;1.48;;;14.30;99.90;;;;;;4823372;29;20388;-91
2021/05/23 09:57:35;;;;;;;5.68;1.83;;;14.30;99.90;;;;;;4842470;29;20054;-91
2021/05/23 10:00:10;;;;;;;6.28;1.70;;;14.30;99.90;;;;;;4810606;29;20066;-91
2021/05/23 10:03:02;;;;;;;4.55;2.20;;;14.40;99.90;;;;;;4830728;29;20061;-91
2021/05/23 10:05:31;;;;;;;2.20;1.50;;;14.50;99.90;;;;;;4832353;29;20054;-90
2021/05/23 10:08:12;;;;;;;4.25;1.40;;;14.50;99.90;;;;;;4815313;29;20069;-90
2021/05/23 10:10:43;;;;;;;6.50;2.13;;;14.50;99.90;;;;;;4824846;29;20443;-91
2021/05/23 10:13:15;;;;;;;9.02;2.13;;;14.50;99.90;;;;;;4826179;29;20598;-91
2021/05/23 10:15:43;;;;;;;5.85;1.55;;;14.60;99.90;;;;;;4809356;29;20062;-91
2021/05/23 10:18:13;;;;;;;8.27;2.13;;;14.60;99.90;;;;;;4808658;29;20060;-91
2021/05/23 10:20:52;;;;;;;4.65;1.35;;;14.50;99.90;;;;;;4828508;29;20053;-90
2021/05/23 10:23:36;;;;;;;3.03;1.50;;;14.30;99.90;;;;;;4812560;29;20058;-92
2021/05/23 10:26:12;;;;;;;6.05;1.65;;;14.30;99.90;;;;;;4798960;29;20058;-91
2021/05/23 10:28:45;;;;;;;5.97;1.45;;;14.10;99.90;;;;;;4842113;29;20053;-92
2021/05/23 10:31:39;;;;;;;6.75;1.73;;;14.10;99.90;;;;;;4824525;29;20061;-92
2021/05/23 10:34:16;;;;;;;6.85;1.92;;;14.00;99.90;;;;;;4809390;29;20703;-92
2021/05/23 10:36:48;;;;;;;4.60;1.75;;;14.00;99.90;;;;;;4818783;29;20061;-92
2021/05/23 10:39:17;;;;;;;5.13;1.90;;;13.60;99.90;;;;;;4810428;29;20057;-91
2021/05/23 10:42:01;;;;;;;4.30;1.88;;;13.70;99.90;;;;;;4829899;29;20137;-90
2021/05/23 10:44:46;;;;;;;7.93;2.50;;;13.60;99.90;;;;;;4842663;29;20053;-90
2021/05/23 10:47:43;;;;;;;8.63;1.50;;;13.70;99.90;;;;;;4843305;29;20054;-91
2021/05/23 10:50:12;;;;;;;3.83;1.83;;;13.80;99.90;;;;;;4813485;29;20155;-91
2021/05/23 10:52:41;;;;;;;8.70;1.98;;;13.70;99.90;;;;;;4831380;29;20062;-90
2021/05/23 10:55:16;;;;;;;11.93;1.88;;;13.70;99.90;;;;;;4823594;29;20054;-91
2021/05/23 10:57:52;;;;;;;7.43;3.30;;;12.70;99.90;;;;;;4810823;29;20054;-90
2021/05/23 11:00:24;;;;;;;6.13;1.90;;;13.40;99.90;;;;;;4807981;29;20064;-90
2021/05/23 11:03:30;;;;;;;10.73;3.15;;;13.40;99.90;;;;;;4820013;29;20076;-90
2021/05/23 11:06:03;;;;;;;4.18;1.98;;;13.50;99.90;;;;;;4795605;29;20063;-92
2021/05/23 11:08:32;;;;;;;;;;;13.10;99.90;;;;;;4812109;29;20057;-91
2021/05/23 11:11:20;;;;;;;10.35;2.08;;;14.50;99.90;;;;;;4825583;29;19925;-91
2021/05/23 11:13:53;;;;;;;6.40;2.17;;;14.00;99.90;;;;;;4807537;29;20058;-92
2021/05/23 11:16:24;;;;;;;12.10;2.13;;;14.20;99.90;;;;;;4825391;29;20066;-92
2021/05/23 11:19:03;;;;;;;4.57;1.85;;;14.50;99.90;;;;;;4812048;29;20054;-92
2021/05/23 11:21:40;;;;;;;8.50;2.28;;;14.40;99.90;;;;;;4832720;29;20054;-91
2021/05/23 11:24:12;;;;;;;4.90;1.50;;;14.70;99.90;;;;;;4826019;29;20050;-92
2021/05/23 11:26:50;;;;;;;4.43;1.75;;;14.60;99.90;;;;;;4823259;29;20073;-92
2021/05/23 11:29:27;;;;;;;4.57;1.83;;;14.60;99.90;;;;;;4811378;29;20062;-93
2021/05/23 11:32:10;;;;;;;10.10;2.20;;;13.40;99.90;;;;;;4826187;29;20061;-92
2021/05/23 11:34:46;;;;;;;13.65;2.15;;;15.50;99.90;;;;;;4838423;29;20054;-92
2021/05/23 11:37:16;;;;;;;8.25;2.08;;;14.40;99.90;;;;;;4816833;29;20063;-90
2021/05/23 11:39:47;;;;;;;9.60;2.20;;;14.40;99.90;;;;;;4831703;29;20058;-93
2021/05/23 11:42:19;;;;;;;7.25;1.70;;;14.60;99.90;;;;;;4794500;29;20062;-92
2021/05/23 11:44:53;;;;;;;11.20;2.95;;;14.30;99.90;;;;;;4816093;29;20063;-92
2021/05/23 11:47:24;;;;;;;5.03;2.17;;;14.90;99.90;;;;;;4811066;29;20062;-92
2021/05/23 11:49:54;;;;;;;8.98;2.17;;;16.00;99.90;;;;;;4817536;29;20053;-92
2021/05/23 11:52:28;;;;;;;5.05;2.15;;;15.30;99.90;;;;;;4815488;29;20065;-92
2021/05/23 11:55:04;;;;;;;4.15;2.10;;;15.30;99.90;;;;;;4823583;29;20046;-92
2021/05/23 11:57:34;;;;;;;11.02;1.92;;;15.30;99.90;;;;;;4822264;29;20050;-93
2021/05/23 12:00:14;;;;;;;4.05;1.65;;;15.30;99.90;;;;;;4828928;29;20054;-92
2021/05/23 12:02:57;;;;;;;9.20;2.03;;;15.40;99.90;;;;;;4818480;29;20062;-91
2021/05/23 12:05:40;;;;;;;3.13;1.80;;;15.50;99.90;;;;;;4828149;29;20483;-91
2021/05/23 12:08:21;;;;;;;4.88;1.63;;;17.00;99.90;;;;;;4826263;29;20049;-92
2021/05/23 12:11:05;;;;;;;2.97;1.58;;;13.60;99.90;;;;;;4807809;29;20400;-91
2021/05/23 12:13:46;;;;;;;6.95;1.67;;;14.30;99.90;;;;;;4811638;29;20058;-90
2021/05/23 12:16:22;;;;;;;6.22;1.25;;;13.90;99.90;;;;;;4825882;29;20058;-92
2021/05/23 12:19:08;;;;;;;8.60;1.60;;;14.90;99.90;;;;;;4832214;29;20054;-92
2021/05/23 12:21:54;;;;;;;6.95;1.92;;;13.80;99.90;;;;;;4813973;29;20073;-92
2021/05/23 12:24:41;;;;;;;12.35;1.60;;;14.10;99.90;;;;;;4816034;29;20054;-92
2021/05/23 12:27:16;;;;;;;7.05;2.28;;;14.10;99.90;;;;;;4813277;29;20054;-92
2021/05/23 12:29:49;;;;;;;2.78;1.45;;;14.30;99.90;;;;;;4807054;29;20050;-91
2021/05/23 12:32:18;;;;;;;2.83;1.50;;;14.40;99.90;;;;;;4811752;29;20620;-92
2021/05/23 12:34:54;;;;;;;4.90;1.60;;;14.40;99.90;;;;;;4811774;29;20050;-91
2021/05/23 12:37:28;;;;;;;5.22;2.05;;;14.30;99.90;;;;;;4810849;29;20114;-92
2021/05/23 12:39:58;;;;;;;7.32;2.45;;;14.20;99.90;;;;;;4824076;29;20414;-90
2021/05/23 12:42:35;;;;;;;3.05;2.13;;;14.30;99.90;;;;;;4805236;29;20050;-89
2021/05/23 12:45:07;;;;;;;7.90;2.47;;;14.20;99.90;;;;;;4807187;29;20050;-91
2021/05/23 12:47:55;;;;;;;9.93;2.53;;;14.70;99.90;;;;;;4840855;29;20058;-90
2021/05/23 12:50:33;;;;;;;4.35;2.20;;;14.50;99.90;;;;;;4813045;29;20065;-91
2021/05/23 12:53:04;;;;;;;9.98;3.03;;;14.70;99.90;;;;;;4817400;29;20058;-92
2021/05/23 12:55:41;;;;;;;8.25;2.22;;;14.80;99.90;;;;;;4817641;29;20077;-91
2021/05/23 12:58:21;;;;;;;5.25;2.50;;;14.90;99.90;;;;;;4828135;29;20060;-93
2021/05/23 13:01:43;;;;;;;9.67;2.03;;;15.00;99.90;;;;;;4864265;29;20050;-91
2021/05/23 13:04:17;;;;;;;5.93;1.98;;;15.00;99.90;;;;;;4813330;29;20495;-91
2021/05/23 13:06:55;;;;;;;9.80;3.13;;;14.90;99.90;;;;;;4825778;29;20056;-91
2021/05/23 13:09:32;;;;;;;6.70;2.38;;;15.00;99.90;;;;;;4825903;29;20702;-91
2021/05/23 13:12:06;;;;;;;12.63;2.75;;;14.90;99.90;;;;;;4820760;29;21010;-92
2021/05/23 13:14:36;;;;;;;7.60;1.95;;;14.90;99.90;;;;;;4826961;29;20042;-92
2021/05/23 13:17:06;;;;;;;3.35;1.40;;;14.80;99.90;;;;;;4823380;29;20260;-90
2021/05/23 13:19:45;;;;;;;9.27;1.83;;;14.80;99.90;;;;;;4822598;29;20058;-91
2021/05/23 13:22:13;;;;;;;6.07;1.50;;;14.70;99.90;;;;;;4819990;29;20054;-92
2021/05/23 13:24:44;;;;;;;6.35;1.70;;;14.70;99.90;;;;;;4839556;29;20049;-92